Hovedside
METAR-TAF:

METAR-TAF

Lufthavner :

Vilhelmina, Sverige

breddegrad: 64-34-44N, lengdegrad: 016-50-00E, høyde over havet: 347 m

Gjeldene værobservasjon

Denne rapporten ble laget for 28 minutter siden, klokken 16:20 UTC
Flau vind
Temperatur -11°C
Luftfuktighet 78%
Trykk 1035 hPa
Sikt: 0300 m
underkjølt tåke

METAR: ESNV 201620Z AUTO 00000KT 0300 R10/P2000N R28/0375N FZFG FEW001/// OVC002/// M11/M14 Q1035

Tid: 17:48 (16:48 UTC)


TAF: fraværende

Værobservasjoner og værvarsel for over 4000 flyplasser (METAR- og TAF-rapporter).

Tilgjengelige stasjoner er representert av de røde og gule prikkene på kartet.

Hold musepekeren over prikken for å se navnet på stasjonen.

Klikk så for å se værobservasjoner og -varsler.

For å forandre kartet kan du klikke på den grønne knappen med svart kryss for å zoome inn, på den grønne knappen med strek for å zoome ut, eller på de grønne pilene for å se tilstøtende kart.


METAR-TAF: